createdAt,value
2022-10-17T00:00:00.196Z,97.04
2022-10-17T00:03:02.678Z,96.88
2022-10-17T00:06:08.269Z,97.03
2022-10-17T00:09:10.409Z,97.23
2022-10-17T00:12:12.738Z,98.04
2022-10-17T00:15:17.141Z,98.29
2022-10-17T00:18:19.498Z,98.14
2022-10-17T00:21:22.977Z,98.01
2022-10-17T00:24:25.381Z,98.38
2022-10-17T00:27:27.638Z,98.87
2022-10-17T00:30:30.304Z,98.81
2022-10-17T00:33:33.549Z,98.54
2022-10-17T00:36:35.935Z,99.47
2022-10-17T00:39:38.598Z,99.61
2022-10-17T00:42:40.957Z,99.28
2022-10-17T00:45:43.046Z,99.40
2022-10-17T00:48:49.998Z,98.71
2022-10-17T00:51:58.878Z,98.92
2022-10-17T00:55:18.014Z,99.64
2022-10-17T00:58:20.999Z,100.00
2022-10-17T01:01:23.676Z,99.92
2022-10-17T01:04:25.944Z,99.59
2022-10-17T01:07:33.162Z,99.96
2022-10-17T01:11:09.294Z,100.00
2022-10-17T01:14:20.738Z,100.00
2022-10-17T01:17:50.695Z,100.00
2022-10-17T01:21:21.363Z,100.00
2022-10-17T01:24:35.816Z,100.00
2022-10-17T01:28:00.421Z,100.00
2022-10-17T01:31:08.277Z,100.00
2022-10-17T01:34:14.422Z,100.00
2022-10-17T01:37:31.580Z,100.00
2022-10-17T01:40:42.927Z,100.00
2022-10-17T01:43:52.816Z,100.00
2022-10-17T01:47:03.437Z,100.00
2022-10-17T01:50:18.140Z,100.00
2022-10-17T01:53:37.551Z,100.00
2022-10-17T01:56:42.302Z,100.00
2022-10-17T01:59:49.558Z,100.00
2022-10-17T02:03:04.583Z,100.00
2022-10-17T02:06:07.774Z,100.00
2022-10-17T02:09:23.249Z,100.00
2022-10-17T02:12:44.847Z,100.00
2022-10-17T02:16:14.827Z,100.00
2022-10-17T02:19:24.048Z,100.00
2022-10-17T02:22:43.930Z,100.00
2022-10-17T02:25:59.765Z,100.00
2022-10-17T02:29:17.606Z,100.00
2022-10-17T02:32:52.094Z,100.00
2022-10-17T02:36:00.429Z,100.00
2022-10-17T02:39:05.611Z,100.00
2022-10-17T02:42:11.325Z,100.00
2022-10-17T02:45:15.643Z,100.00
2022-10-17T02:48:38.697Z,100.00
2022-10-17T02:51:52.922Z,100.00
2022-10-17T02:55:01.102Z,100.00
2022-10-17T02:58:12.078Z,100.00
2022-10-17T03:01:15.651Z,100.00
2022-10-17T03:04:19.518Z,100.00
2022-10-17T03:07:21.708Z,100.00
2022-10-17T03:10:24.123Z,100.00
2022-10-17T03:13:26.386Z,100.00
2022-10-17T03:16:28.942Z,100.00
2022-10-17T03:19:31.357Z,100.00
2022-10-17T03:22:34.050Z,100.00
2022-10-17T03:25:36.924Z,100.00
2022-10-17T03:28:40.797Z,100.00
2022-10-17T03:31:42.969Z,100.00
2022-10-17T03:34:45.797Z,100.00
2022-10-17T03:37:48.039Z,100.00
2022-10-17T03:40:56.880Z,100.00
2022-10-17T03:43:59.050Z,100.00
2022-10-17T03:47:02.435Z,100.00
2022-10-17T03:50:05.938Z,100.00
2022-10-17T03:53:08.678Z,100.00
2022-10-17T03:56:29.087Z,100.00
2022-10-17T03:59:32.342Z,100.00
2022-10-17T04:02:35.245Z,100.00
2022-10-17T04:05:37.627Z,100.00
2022-10-17T04:08:40.223Z,100.00
2022-10-17T04:11:43.078Z,100.00
2022-10-17T04:14:45.226Z,100.00
2022-10-17T04:17:49.568Z,100.00
2022-10-17T04:20:52.324Z,100.00
2022-10-17T04:23:56.106Z,100.00
2022-10-17T04:27:01.064Z,100.00
2022-10-17T04:30:03.866Z,100.00
2022-10-17T04:33:06.333Z,100.00
2022-10-17T04:36:14.096Z,100.00
2022-10-17T04:39:16.282Z,100.00
2022-10-17T04:42:18.707Z,100.00
2022-10-17T04:45:21.147Z,100.00
2022-10-17T04:48:24.498Z,100.00
2022-10-17T04:51:26.885Z,100.00
2022-10-17T04:54:31.657Z,100.00
2022-10-17T04:57:35.684Z,100.00
2022-10-17T05:00:38.775Z,100.00
2022-10-17T05:03:41.064Z,100.00
2022-10-17T05:06:43.430Z,100.00
2022-10-17T05:09:46.716Z,100.00
2022-10-17T05:12:50.308Z,100.00
2022-10-17T05:15:53.191Z,100.00
2022-10-17T05:18:57.844Z,100.00
2022-10-17T05:22:02.352Z,100.00
2022-10-17T05:25:05.204Z,100.00
2022-10-17T05:28:07.273Z,100.00
2022-10-17T05:31:11.631Z,100.00
2022-10-17T05:34:14.158Z,100.00
2022-10-17T05:37:16.791Z,100.00
2022-10-17T05:40:20.699Z,100.00
2022-10-17T05:43:26.962Z,100.00
2022-10-17T05:46:29.152Z,100.00
2022-10-17T05:49:44.707Z,100.00
2022-10-17T05:52:55.280Z,100.00
2022-10-17T05:56:03.110Z,100.00
2022-10-17T05:59:06.135Z,100.00
2022-10-17T06:02:12.185Z,100.00
2022-10-17T06:05:15.421Z,100.00
2022-10-17T06:08:19.907Z,100.00
2022-10-17T06:11:25.880Z,100.00
2022-10-17T06:14:28.279Z,100.00
2022-10-17T06:17:31.056Z,100.00
2022-10-17T06:20:33.273Z,100.00
2022-10-17T06:23:36.101Z,100.00
2022-10-17T06:26:38.478Z,100.00
2022-10-17T06:29:41.848Z,100.00
2022-10-17T06:32:44.476Z,100.00
2022-10-17T06:35:54.841Z,100.00
2022-10-17T06:38:57.280Z,100.00
2022-10-17T06:42:00.891Z,100.00
2022-10-17T06:45:08.513Z,100.00
2022-10-17T06:48:11.042Z,100.00
2022-10-17T06:51:14.385Z,99.69
2022-10-17T06:54:18.002Z,99.47
2022-10-17T06:57:20.591Z,99.27
2022-10-17T07:00:23.688Z,98.32
2022-10-17T07:03:26.437Z,99.28
2022-10-17T07:06:28.895Z,97.98
2022-10-17T07:09:32.864Z,98.63
2022-10-17T07:12:35.748Z,98.22
2022-10-17T07:15:38.787Z,97.06
2022-10-17T07:18:42.111Z,95.52
2022-10-17T07:21:44.235Z,94.92
2022-10-17T07:24:46.804Z,94.35
2022-10-17T07:27:50.540Z,93.60
2022-10-17T07:30:54.462Z,93.60
2022-10-17T07:33:58.965Z,93.42
2022-10-17T07:37:02.097Z,92.20
2022-10-17T07:40:06.581Z,90.61
2022-10-17T07:43:09.188Z,90.86
2022-10-17T07:46:12.331Z,88.85
2022-10-17T07:49:14.937Z,88.62
2022-10-17T07:52:17.333Z,88.75
2022-10-17T07:55:20.254Z,87.72
2022-10-17T07:58:22.333Z,86.15
2022-10-17T08:01:25.835Z,85.71
2022-10-17T08:04:29.019Z,85.15
2022-10-17T08:07:31.525Z,83.65
2022-10-17T08:10:33.937Z,83.36
2022-10-17T08:13:36.884Z,78.57
2022-10-17T08:16:40.362Z,78.43
2022-10-17T08:19:42.522Z,78.80
2022-10-17T08:22:52.049Z,77.37
2022-10-17T08:25:54.177Z,76.96
2022-10-17T08:28:56.928Z,77.25
2022-10-17T08:32:01.444Z,75.76
2022-10-17T08:35:04.976Z,74.13
2022-10-17T08:38:09.038Z,72.72
2022-10-17T08:41:23.997Z,68.69
2022-10-17T08:44:38.303Z,68.37
2022-10-17T08:47:51.964Z,67.50
2022-10-17T08:50:58.087Z,66.42
2022-10-17T08:54:16.801Z,63.05
2022-10-17T08:57:39.604Z,62.42
2022-10-17T09:01:00.832Z,60.49
2022-10-17T09:04:02.770Z,58.87
2022-10-17T09:07:17.125Z,57.63
2022-10-17T09:10:44.819Z,57.36
2022-10-17T09:13:54.479Z,58.15
2022-10-17T09:17:08.774Z,57.56
2022-10-17T09:20:21.341Z,58.52
2022-10-17T09:23:31.171Z,59.40
2022-10-17T09:26:33.592Z,59.63
2022-10-17T09:29:40.174Z,60.05
2022-10-17T09:32:47.616Z,57.44
2022-10-17T09:35:51.003Z,58.28
2022-10-17T09:38:59.010Z,57.09
2022-10-17T09:42:02.906Z,54.42
2022-10-17T09:45:26.024Z,58.89
2022-10-17T09:48:35.063Z,56.56
2022-10-17T09:51:38.788Z,59.20
2022-10-17T09:54:51.632Z,59.19
2022-10-17T09:57:59.696Z,59.02
2022-10-17T10:01:23.682Z,58.02
2022-10-17T10:04:30.200Z,57.39
2022-10-17T10:07:38.806Z,56.05
2022-10-17T10:10:43.269Z,56.29
2022-10-17T10:13:48.423Z,54.85
2022-10-17T10:16:53.761Z,53.67
2022-10-17T10:19:56.349Z,55.24
2022-10-17T10:23:06.270Z,51.67
2022-10-17T10:26:24.497Z,52.86
2022-10-17T10:29:50.823Z,52.81
2022-10-17T10:32:52.986Z,52.90
2022-10-17T10:36:01.987Z,52.92
2022-10-17T10:39:06.005Z,49.46
2022-10-17T10:42:19.892Z,50.49
2022-10-17T10:45:48.027Z,51.28
2022-10-17T10:48:59.670Z,50.17
2022-10-17T10:52:04.290Z,50.00
2022-10-17T10:55:29.618Z,50.82
2022-10-17T10:58:54.119Z,48.00
2022-10-17T11:02:15.448Z,47.89
2022-10-17T11:05:42.347Z,48.42
2022-10-17T11:08:57.423Z,48.71
2022-10-17T11:12:11.839Z,47.91
2022-10-17T11:15:25.232Z,48.56
2022-10-17T11:19:13.685Z,48.50
2022-10-17T11:22:26.673Z,48.38
2022-10-17T11:25:34.544Z,46.88
2022-10-17T11:28:37.487Z,45.47
2022-10-17T11:31:47.983Z,45.35
2022-10-17T11:34:56.908Z,46.01
2022-10-17T11:38:21.156Z,47.28
2022-10-17T11:41:37.504Z,46.20
2022-10-17T11:44:41.399Z,45.79
2022-10-17T11:47:54.232Z,46.53
2022-10-17T11:54:56.153Z,47.01
2022-10-17T11:58:19.854Z,47.06
2022-10-17T12:01:54.850Z,47.21
2022-10-17T12:05:10.092Z,46.73
2022-10-17T12:08:35.164Z,48.90
2022-10-17T12:11:56.911Z,44.80
2022-10-17T12:15:24.331Z,45.44
2022-10-17T12:18:29.883Z,44.70
2022-10-17T12:21:56.763Z,44.91
2022-10-17T12:25:01.654Z,45.49
2022-10-17T12:28:10.539Z,45.69
2022-10-17T12:31:15.970Z,46.04
2022-10-17T12:34:22.330Z,47.23
2022-10-17T12:37:42.747Z,45.38
2022-10-17T12:40:49.009Z,44.58
2022-10-17T12:43:53.910Z,46.51
2022-10-17T12:47:11.127Z,45.97
2022-10-17T12:51:17.681Z,44.89
2022-10-17T12:54:24.039Z,43.83
2022-10-17T12:57:51.618Z,44.71
2022-10-17T13:01:22.496Z,45.60
2022-10-17T13:04:20.063Z,43.51
2022-10-17T13:07:23.265Z,43.71
2022-10-17T13:10:29.016Z,42.89
2022-10-17T13:13:33.777Z,44.07
2022-10-17T13:16:51.033Z,44.35
2022-10-17T13:19:53.828Z,43.84
2022-10-17T13:23:00.054Z,43.99
2022-10-17T13:26:16.454Z,43.76
2022-10-17T13:29:21.167Z,44.49
2022-10-17T13:32:25.782Z,44.47
2022-10-17T13:39:12.526Z,45.91
2022-10-17T13:42:27.840Z,45.12
2022-10-17T13:45:36.851Z,45.75
2022-10-17T13:48:39.312Z,45.69
2022-10-17T13:51:47.015Z,45.16
2022-10-17T13:54:51.329Z,46.16
2022-10-17T13:57:53.618Z,44.58
2022-10-17T14:00:56.667Z,45.85
2022-10-17T14:04:20.181Z,45.92
2022-10-17T14:07:46.190Z,46.24
2022-10-17T14:10:54.452Z,46.64
2022-10-17T14:13:57.998Z,47.25
2022-10-17T14:17:00.572Z,46.62
2022-10-17T14:20:29.686Z,47.96
2022-10-17T14:23:34.109Z,48.15
2022-10-17T14:26:50.265Z,45.96
2022-10-17T14:29:55.041Z,47.36
2022-10-17T14:33:01.433Z,47.89
2022-10-17T14:36:05.356Z,47.57
2022-10-17T14:39:18.329Z,48.56
2022-10-17T14:42:22.595Z,49.31
2022-10-17T14:45:30.815Z,48.08
2022-10-17T14:48:33.410Z,47.55
2022-10-17T14:51:50.188Z,49.07
2022-10-17T14:54:59.573Z,49.85
2022-10-17T14:58:01.789Z,49.72
2022-10-17T15:01:04.149Z,50.31
2022-10-17T15:04:10.649Z,51.06
2022-10-17T15:07:15.519Z,52.08
2022-10-17T15:10:35.157Z,52.14
2022-10-17T15:13:42.187Z,53.92
2022-10-17T15:16:46.826Z,53.15
2022-10-17T15:19:50.684Z,54.12
2022-10-17T15:22:54.668Z,54.62
2022-10-17T15:25:57.030Z,54.89
2022-10-17T15:28:59.848Z,54.84
2022-10-17T15:32:05.368Z,55.21
2022-10-17T15:35:08.399Z,55.12
2022-10-17T15:38:17.779Z,55.49
2022-10-17T15:41:20.159Z,55.63
2022-10-17T15:44:22.918Z,56.51
2022-10-17T15:47:28.122Z,57.03
2022-10-17T15:50:30.929Z,57.35
2022-10-17T15:53:33.012Z,56.77
2022-10-17T15:56:39.998Z,57.14
2022-10-17T15:59:42.194Z,57.78
2022-10-17T16:02:44.803Z,58.10
2022-10-17T16:05:49.653Z,57.78
2022-10-17T16:08:52.342Z,58.51
2022-10-17T16:11:54.860Z,58.75
2022-10-17T16:14:57.274Z,59.57
2022-10-17T16:18:01.715Z,60.56
2022-10-17T16:21:06.448Z,61.43
2022-10-17T16:24:11.919Z,63.84
2022-10-17T16:27:14.032Z,64.16
2022-10-17T16:30:17.266Z,64.89
2022-10-17T16:33:19.353Z,64.55
2022-10-17T16:36:22.657Z,66.73
2022-10-17T16:39:24.802Z,66.79
2022-10-17T16:42:27.280Z,68.15
2022-10-17T16:45:30.246Z,67.14
2022-10-17T16:48:32.610Z,68.44
2022-10-17T16:51:35.842Z,69.21
2022-10-17T16:54:38.249Z,69.99
2022-10-17T17:00:50.969Z,70.08
2022-10-17T17:03:54.084Z,70.45
2022-10-17T17:06:56.529Z,71.55
2022-10-17T17:09:58.618Z,70.61
2022-10-17T17:13:01.723Z,71.84
2022-10-17T17:16:10.299Z,71.40
2022-10-17T17:19:15.162Z,72.25
2022-10-17T17:22:17.239Z,72.42
2022-10-17T17:25:19.564Z,72.89
2022-10-17T17:28:21.734Z,72.12
2022-10-17T17:31:27.497Z,73.03
2022-10-17T17:34:29.777Z,72.28
2022-10-17T17:37:32.409Z,73.76
2022-10-17T17:40:34.803Z,73.44
2022-10-17T17:43:37.155Z,72.87
2022-10-17T17:46:39.419Z,73.41
2022-10-17T17:49:41.745Z,72.80
2022-10-17T17:52:45.540Z,74.10
2022-10-17T17:55:47.905Z,72.59
2022-10-17T17:58:55.841Z,73.81
2022-10-17T18:01:58.248Z,73.45
2022-10-17T18:05:00.629Z,73.78
2022-10-17T18:08:04.746Z,74.05
2022-10-17T18:11:07.090Z,74.15
2022-10-17T18:14:12.458Z,73.58
2022-10-17T18:17:14.839Z,73.63
2022-10-17T18:20:16.965Z,75.03
2022-10-17T18:23:19.536Z,75.10
2022-10-17T18:26:21.604Z,75.48
2022-10-17T18:29:23.899Z,74.36
2022-10-17T18:32:25.999Z,75.60
2022-10-17T18:35:28.379Z,74.46
2022-10-17T18:38:31.191Z,74.13
2022-10-17T18:41:34.004Z,73.81
2022-10-17T18:44:36.113Z,73.88
2022-10-17T18:47:38.447Z,75.23
2022-10-17T18:50:40.499Z,74.38
2022-10-17T18:53:45.915Z,74.63
2022-10-17T18:56:51.075Z,77.05
2022-10-17T18:59:53.493Z,76.44
2022-10-17T19:02:55.536Z,76.61
2022-10-17T19:06:02.602Z,75.90
2022-10-17T19:09:06.955Z,76.32
2022-10-17T19:12:09.413Z,76.04
2022-10-17T19:15:11.464Z,76.00
2022-10-17T19:18:13.801Z,77.63
2022-10-17T19:21:20.854Z,76.38
2022-10-17T19:24:26.880Z,76.11
2022-10-17T19:27:29.254Z,76.82
2022-10-17T19:30:31.918Z,75.81
2022-10-17T19:33:34.571Z,75.68
2022-10-17T19:36:37.634Z,75.62
2022-10-17T19:39:39.818Z,76.79
2022-10-17T19:42:42.162Z,76.23
2022-10-17T19:45:44.261Z,76.58
2022-10-17T19:48:46.843Z,76.86
2022-10-17T19:51:48.975Z,77.01
2022-10-17T19:54:51.370Z,76.98
2022-10-17T19:57:53.583Z,77.43
2022-10-17T20:00:58.514Z,77.71
2022-10-17T20:04:01.080Z,77.98
2022-10-17T20:07:03.507Z,77.96
2022-10-17T20:10:06.952Z,78.63
2022-10-17T20:13:09.774Z,78.51
2022-10-17T20:16:16.012Z,78.93
2022-10-17T20:19:19.095Z,79.38
2022-10-17T20:22:21.477Z,79.42
2022-10-17T20:25:23.611Z,80.04
2022-10-17T20:28:27.412Z,80.27
2022-10-17T20:31:29.915Z,80.33
2022-10-17T20:34:35.438Z,80.78
2022-10-17T20:37:41.581Z,80.93
2022-10-17T20:40:45.399Z,80.91
2022-10-17T20:43:51.290Z,81.54
2022-10-17T20:47:01.714Z,81.64
2022-10-17T20:50:05.002Z,82.29
2022-10-17T20:53:34.985Z,82.91
2022-10-17T20:56:31.497Z,83.81
2022-10-17T20:59:35.989Z,84.19
2022-10-17T21:02:38.065Z,85.39
2022-10-17T21:05:40.855Z,86.49
2022-10-17T21:08:43.853Z,86.29
2022-10-17T21:11:46.332Z,85.80
2022-10-17T21:14:48.425Z,86.48
2022-10-17T21:17:50.801Z,87.21
2022-10-17T21:20:52.875Z,86.72
2022-10-17T21:23:58.682Z,87.09
2022-10-17T21:27:00.825Z,87.58
2022-10-17T21:30:04.053Z,87.58
2022-10-17T21:33:06.156Z,87.40
2022-10-17T21:36:09.700Z,87.36
2022-10-17T21:39:13.014Z,87.91
2022-10-17T21:42:15.391Z,88.43
2022-10-17T21:45:25.297Z,89.05
2022-10-17T21:48:28.344Z,89.79
2022-10-17T21:51:30.425Z,89.57
2022-10-17T21:54:32.822Z,89.90
2022-10-17T21:57:34.899Z,90.69
2022-10-17T22:00:37.237Z,90.83
2022-10-17T22:03:45.673Z,91.12
2022-10-17T22:06:51.154Z,91.74
2022-10-17T22:09:53.707Z,92.05
2022-10-17T22:12:55.782Z,92.07
2022-10-17T22:16:02.315Z,91.83
2022-10-17T22:19:06.731Z,92.52
2022-10-17T22:22:09.411Z,91.73
2022-10-17T22:25:11.559Z,91.53
2022-10-17T22:28:13.905Z,91.58
2022-10-17T22:31:15.951Z,92.03
2022-10-17T22:34:18.615Z,92.16
2022-10-17T22:37:20.915Z,91.94
2022-10-17T22:40:23.257Z,92.48
2022-10-17T22:43:25.679Z,92.20
2022-10-17T22:46:28.351Z,92.74
2022-10-17T22:49:30.452Z,92.94
2022-10-17T22:52:33.027Z,92.30
2022-10-17T22:55:35.397Z,92.10
2022-10-17T22:58:38.431Z,91.52
2022-10-17T23:01:40.645Z,91.97
2022-10-17T23:04:43.021Z,92.04
2022-10-17T23:07:45.142Z,93.15
2022-10-17T23:10:48.257Z,93.26
2022-10-17T23:13:50.425Z,92.98
2022-10-17T23:16:52.790Z,93.22
2022-10-17T23:19:57.027Z,93.46
2022-10-17T23:23:00.102Z,93.58
2022-10-17T23:26:11.141Z,93.36
2022-10-17T23:29:13.483Z,92.95
2022-10-17T23:32:15.560Z,93.35
2022-10-17T23:35:17.960Z,93.84
2022-10-17T23:38:20.120Z,94.17
2022-10-17T23:41:22.479Z,93.14
2022-10-17T23:44:24.607Z,93.74
2022-10-17T23:47:26.977Z,93.68
2022-10-17T23:50:29.055Z,93.69
2022-10-17T23:53:31.590Z,94.70
2022-10-17T23:56:33.664Z,94.88
2022-10-17T23:59:36.231Z,94.41
